Time;durP1;ratioP1;P1;durP2;ratioP2;P2;SDS_P1;SDS_P2;PMS_P1;PMS_P2;Temp;Humidity;BMP_temperature;BMP_pressure;BME280_temperature;BME280_humidity;BME280_pressure;Samples;Min_cycle;Max_cycle;Signal;HPM_P1;HPM_P2
2024/01/25 00:01:34;;;;;;;4.88;1.35;;;10.40;77.50;;;;;;5022599;28;20040;-74
2024/01/25 00:04:00;;;;;;;12.23;1.85;;;10.40;77.60;;;;;;5064245;28;20121;-68
2024/01/25 00:06:26;;;;;;;6.13;1.60;;;10.40;77.70;;;;;;5040674;28;20392;-74
2024/01/25 00:08:52;;;;;;;8.40;1.67;;;10.30;77.60;;;;;;5059789;28;20489;-74
2024/01/25 00:11:18;;;;;;;5.60;2.33;;;10.30;77.60;;;;;;5032872;28;20495;-73
2024/01/25 00:13:43;;;;;;;5.93;2.33;;;10.30;77.60;;;;;;5032789;28;20041;-73
2024/01/25 00:16:09;;;;;;;5.38;1.33;;;10.30;77.50;;;;;;5035227;28;20497;-68
2024/01/25 00:18:35;;;;;;;12.25;3.05;;;10.20;77.50;;;;;;5034135;28;20038;-68
2024/01/25 00:21:01;;;;;;;6.35;2.70;;;10.20;77.60;;;;;;5027521;28;20092;-69
2024/01/25 00:23:27;;;;;;;3.30;1.73;;;10.10;77.60;;;;;;5040529;28;20128;-68
2024/01/25 00:25:53;;;;;;;3.88;1.80;;;10.10;77.70;;;;;;5037515;28;20029;-68
2024/01/25 00:28:19;;;;;;;12.20;1.67;;;10.10;77.70;;;;;;5035012;28;20657;-69
2024/01/25 00:30:45;;;;;;;4.22;1.60;;;10.00;77.60;;;;;;5037760;28;20139;-74
2024/01/25 00:33:10;;;;;;;7.47;1.95;;;10.00;77.70;;;;;;5037547;28;20033;-74
2024/01/25 00:35:36;;;;;;;14.50;1.60;;;10.00;77.70;;;;;;5034581;28;20132;-74
2024/01/25 00:38:02;;;;;;;6.47;2.60;;;10.00;77.80;;;;;;5031697;28;20022;-74
2024/01/25 00:40:28;;;;;;;2.72;1.65;;;9.90;77.70;;;;;;5063876;28;20064;-74
2024/01/25 00:42:55;;;;;;;2.80;1.70;;;9.90;77.80;;;;;;5031353;28;20042;-74
2024/01/25 00:45:22;;;;;;;6.45;1.52;;;9.90;77.80;;;;;;5045927;28;20032;-74
2024/01/25 00:47:48;;;;;;;5.57;1.10;;;9.90;78.30;;;;;;5018585;28;20037;-74
2024/01/25 00:50:17;;;;;;;5.05;2.15;;;9.90;77.70;;;;;;5046017;28;20107;-73
2024/01/25 00:52:44;;;;;;;6.30;1.77;;;9.90;77.70;;;;;;5033938;28;20026;-68
2024/01/25 00:55:10;;;;;;;3.70;1.17;;;9.90;77.70;;;;;;5038778;28;20044;-68
2024/01/25 00:57:36;;;;;;;5.05;2.03;;;9.80;77.60;;;;;;5034487;28;20435;-69
2024/01/25 01:00:03;;;;;;;11.40;2.17;;;9.80;77.70;;;;;;5034466;28;20397;-68
2024/01/25 01:02:31;;;;;;;5.00;1.95;;;9.80;77.70;;;;;;5038673;28;20515;-69
2024/01/25 01:05:00;;;;;;;2.70;1.10;;;9.80;77.60;;;;;;5032838;28;20017;-68
2024/01/25 01:07:26;;;;;;;13.45;2.28;;;9.80;77.60;;;;;;5032983;28;20407;-68
2024/01/25 01:09:52;;;;;;;1.77;1.40;;;9.70;77.60;;;;;;5033202;28;20084;-68
2024/01/25 01:12:17;;;;;;;7.57;2.25;;;9.70;77.70;;;;;;5034703;28;20567;-74
2024/01/25 01:14:43;;;;;;;2.05;1.10;;;9.70;77.80;;;;;;5034494;28;20034;-68
2024/01/25 01:17:09;;;;;;;3.17;2.13;;;9.70;77.80;;;;;;5031808;28;20377;-69
2024/01/25 01:19:35;;;;;;;6.88;2.15;;;9.60;77.70;;;;;;5032362;28;20037;-68
2024/01/25 01:22:01;;;;;;;21.38;2.17;;;9.60;77.80;;;;;;5036648;28;20036;-68
2024/01/25 01:24:26;;;;;;;7.93;1.63;;;9.60;77.70;;;;;;5035096;28;20038;-73
2024/01/25 01:26:52;;;;;;;7.50;2.00;;;9.50;77.80;;;;;;5036001;28;20103;-74
2024/01/25 01:29:18;;;;;;;4.45;1.23;;;9.50;78.00;;;;;;5035519;28;20031;-74
2024/01/25 01:31:44;;;;;;;4.68;1.27;;;9.50;78.00;;;;;;5035623;28;20033;-68
2024/01/25 01:34:12;;;;;;;3.40;1.98;;;9.40;77.90;;;;;;5041552;28;20448;-71
2024/01/25 01:36:38;;;;;;;8.57;1.60;;;9.40;77.80;;;;;;5032813;28;20408;-73
2024/01/25 01:39:03;;;;;;;5.63;1.25;;;9.40;77.80;;;;;;5032454;28;20030;-68
2024/01/25 01:41:29;;;;;;;9.15;1.52;;;9.30;77.80;;;;;;5033625;28;20492;-69
2024/01/25 01:43:55;;;;;;;3.05;1.85;;;9.30;77.80;;;;;;5034358;28;20045;-74
2024/01/25 01:46:40;;;;;;;5.45;1.88;;;9.20;77.80;;;;;;5037700;28;20476;-68
2024/01/25 01:49:11;;;;;;;2.05;1.42;;;9.20;77.70;;;;;;5035123;28;20036;-73
2024/01/25 01:51:38;;;;;;;6.13;1.75;;;9.10;77.70;;;;;;5036355;28;20034;-74
2024/01/25 01:54:06;;;;;;;5.60;1.67;;;9.00;77.80;;;;;;5037185;28;20034;-68
2024/01/25 01:56:33;;;;;;;2.33;1.13;;;8.90;77.70;;;;;;5027171;28;20030;-69
2024/01/25 01:59:00;;;;;;;9.75;2.22;;;8.80;77.70;;;;;;5038444;28;20472;-73
2024/01/25 02:01:27;;;;;;;5.43;2.00;;;8.80;77.90;;;;;;5026188;28;20067;-74
2024/01/25 02:03:53;;;;;;;3.58;1.00;;;8.70;78.00;;;;;;5019589;28;20560;-74
2024/01/25 02:06:19;;;;;;;5.10;1.38;;;8.70;78.00;;;;;;5034758;28;20030;-74
2024/01/25 02:08:47;;;;;;;1.10;0.80;;;8.70;78.00;;;;;;5031644;28;20029;-73
2024/01/25 02:11:13;;;;;;;3.42;1.50;;;8.60;78.10;;;;;;5032176;28;20080;-73
2024/01/25 02:13:38;;;;;;;8.00;1.95;;;8.60;78.10;;;;;;5037025;28;20448;-73
2024/01/25 02:16:06;;;;;;;4.82;1.40;;;8.50;78.10;;;;;;5031394;28;20029;-73
2024/01/25 02:18:33;;;;;;;9.02;1.90;;;8.50;78.20;;;;;;5039892;28;20029;-73
2024/01/25 02:20:58;;;;;;;4.75;1.38;;;8.50;78.20;;;;;;5041755;28;20508;-74
2024/01/25 02:23:24;;;;;;;6.72;2.10;;;8.50;78.20;;;;;;5032269;28;20077;-74
2024/01/25 02:25:50;;;;;;;5.40;1.55;;;8.40;78.10;;;;;;5036300;28;20029;-73
2024/01/25 02:28:16;;;;;;;2.78;1.50;;;8.30;78.10;;;;;;5037793;28;20053;-73
2024/01/25 02:30:41;;;;;;;7.05;1.63;;;8.30;78.20;;;;;;5036690;28;20056;-73
2024/01/25 02:33:07;;;;;;;2.42;0.98;;;8.20;78.30;;;;;;5044631;28;20025;-68
2024/01/25 02:35:33;;;;;;;5.80;2.05;;;8.20;78.40;;;;;;5045132;28;20128;-68
2024/01/25 02:37:59;;;;;;;2.47;1.88;;;8.10;78.40;;;;;;5045339;28;20029;-73
2024/01/25 02:40:25;;;;;;;4.07;1.88;;;8.10;78.50;;;;;;5038671;28;20124;-73
2024/01/25 02:42:51;;;;;;;8.18;1.67;;;8.00;78.50;;;;;;5032910;28;20080;-73
2024/01/25 02:45:17;;;;;;;3.35;1.15;;;7.90;78.50;;;;;;5050250;28;20515;-69
2024/01/25 02:47:43;;;;;;;0.90;0.80;;;7.80;78.40;;;;;;5036195;28;20032;-73
2024/01/25 02:50:09;;;;;;;2.63;1.08;;;7.80;78.50;;;;;;5031491;28;20037;-73
2024/01/25 02:52:34;;;;;;;0.88;0.85;;;7.70;78.50;;;;;;5036613;28;20061;-68
2024/01/25 02:55:00;;;;;;;7.28;1.88;;;7.70;78.30;;;;;;5036435;28;20511;-74
2024/01/25 02:57:26;;;;;;;4.55;1.08;;;7.70;78.40;;;;;;5038127;28;20029;-73
2024/01/25 02:59:52;;;;;;;3.10;2.15;;;7.60;78.40;;;;;;5034666;28;20427;-68
2024/01/25 03:02:21;;;;;;;8.88;2.13;;;7.60;78.50;;;;;;5037171;28;20026;-69
2024/01/25 03:04:46;;;;;;;4.72;0.93;;;7.60;78.50;;;;;;5031642;28;20071;-73
2024/01/25 03:07:12;;;;;;;1.98;1.13;;;7.50;78.30;;;;;;5030302;28;20447;-73
2024/01/25 03:09:38;;;;;;;5.90;1.85;;;7.50;78.40;;;;;;5032549;28;20029;-73
2024/01/25 03:12:04;;;;;;;5.93;1.38;;;7.40;78.40;;;;;;5028348;28;20025;-73
2024/01/25 03:14:29;;;;;;;2.83;1.27;;;7.40;78.50;;;;;;5031393;28;20033;-68
2024/01/25 03:16:55;;;;;;;4.95;1.17;;;7.30;78.70;;;;;;5032015;28;20025;-69
2024/01/25 03:19:24;;;;;;;6.65;2.38;;;7.30;78.70;;;;;;5034644;28;20022;-69
2024/01/25 03:21:50;;;;;;;3.83;1.35;;;7.30;78.60;;;;;;5030965;28;20053;-68
2024/01/25 03:24:16;;;;;;;1.85;1.33;;;7.20;78.60;;;;;;5013371;28;20501;-69
2024/01/25 03:26:42;;;;;;;9.07;1.30;;;7.20;78.60;;;;;;5031880;28;20396;-68
2024/01/25 03:29:07;;;;;;;2.47;1.17;;;7.20;78.60;;;;;;5032293;28;20033;-69
2024/01/25 03:31:34;;;;;;;4.13;1.20;;;7.10;78.50;;;;;;5031819;28;20464;-68
2024/01/25 03:34:00;;;;;;;3.65;1.10;;;7.00;78.60;;;;;;5031697;28;20484;-68
2024/01/25 03:36:25;;;;;;;2.60;1.35;;;7.00;78.60;;;;;;5032964;28;20037;-73
2024/01/25 03:38:51;;;;;;;5.95;1.40;;;7.00;78.70;;;;;;5034252;28;20029;-73
2024/01/25 03:41:17;;;;;;;3.20;1.42;;;6.90;78.70;;;;;;5035209;28;20108;-68
2024/01/25 03:43:44;;;;;;;2.78;1.00;;;6.90;78.70;;;;;;5030720;28;20041;-68
2024/01/25 03:46:13;;;;;;;4.25;1.15;;;6.90;78.70;;;;;;5019635;28;20029;-67
2024/01/25 03:48:39;;;;;;;4.32;1.20;;;6.90;78.70;;;;;;5031684;28;20110;-67
2024/01/25 03:51:05;;;;;;;6.43;1.65;;;6.80;78.70;;;;;;5032089;28;20021;-67
2024/01/25 03:53:31;;;;;;;3.42;2.30;;;6.80;78.60;;;;;;5030813;28;20037;-67
2024/01/25 03:55:56;;;;;;;3.22;1.85;;;6.80;78.70;;;;;;5031795;28;20029;-68
2024/01/25 03:58:22;;;;;;;12.38;2.28;;;6.80;78.70;;;;;;5032054;28;20022;-67
2024/01/25 04:00:48;;;;;;;6.57;1.83;;;6.70;78.70;;;;;;5036065;28;20453;-68
2024/01/25 04:03:14;;;;;;;2.67;1.55;;;6.70;78.80;;;;;;5031502;28;20029;-67
2024/01/25 04:05:39;;;;;;;4.03;2.00;;;6.70;78.70;;;;;;5038921;28;20443;-67
2024/01/25 04:08:06;;;;;;;4.72;1.55;;;6.70;78.70;;;;;;5032843;28;20060;-68
2024/01/25 04:10:32;;;;;;;4.00;1.42;;;6.70;78.80;;;;;;5039278;28;20121;-67
2024/01/25 04:13:00;;;;;;;8.27;1.67;;;6.70;78.80;;;;;;5033108;28;20018;-67
2024/01/25 04:15:26;;;;;;;1.92;1.23;;;6.70;78.70;;;;;;5038443;28;20048;-67
2024/01/25 04:17:53;;;;;;;9.00;2.72;;;6.60;78.60;;;;;;5031399;28;20079;-74
2024/01/25 04:20:19;;;;;;;8.90;1.48;;;6.60;78.70;;;;;;5036930;28;20767;-72
2024/01/25 04:22:45;;;;;;;3.47;1.40;;;6.60;78.80;;;;;;5063233;28;20496;-67
2024/01/25 04:25:11;;;;;;;5.78;1.45;;;6.60;78.80;;;;;;5031866;28;20030;-68
2024/01/25 04:27:38;;;;;;;3.45;1.67;;;6.60;79.40;;;;;;5031655;28;20446;-68
2024/01/25 04:30:05;;;;;;;7.68;1.77;;;6.50;78.80;;;;;;5034791;28;20128;-73
2024/01/25 04:32:31;;;;;;;13.52;2.00;;;6.50;78.90;;;;;;5040480;28;20040;-73
2024/01/25 04:34:56;;;;;;;2.42;1.10;;;6.60;79.10;;;;;;5038877;28;20377;-68
2024/01/25 04:37:22;;;;;;;8.10;1.75;;;6.50;78.90;;;;;;5036356;28;20054;-73
2024/01/25 04:39:48;;;;;;;2.45;1.00;;;6.50;78.90;;;;;;5039911;28;20021;-73
2024/01/25 04:42:14;;;;;;;4.65;1.50;;;6.50;79.00;;;;;;5042968;28;20373;-73
2024/01/25 04:44:39;;;;;;;4.47;1.85;;;6.50;79.00;;;;;;5030046;28;20064;-68
2024/01/25 04:47:05;;;;;;;2.80;1.20;;;6.50;79.00;;;;;;5031252;28;20108;-68
2024/01/25 04:49:31;;;;;;;4.70;2.03;;;6.50;79.00;;;;;;5031333;28;20491;-68
2024/01/25 04:51:57;;;;;;;3.08;1.63;;;6.40;78.90;;;;;;5030861;28;20502;-73
2024/01/25 04:54:22;;;;;;;3.45;1.33;;;6.40;78.80;;;;;;5037939;28;20358;-73
2024/01/25 04:56:48;;;;;;;2.85;1.10;;;6.40;78.80;;;;;;5037219;28;20485;-73
2024/01/25 04:59:14;;;;;;;4.68;1.63;;;6.30;78.80;;;;;;5035924;28;20392;-73
2024/01/25 05:01:39;;;;;;;5.47;1.63;;;6.30;78.80;;;;;;5034568;28;20029;-73
2024/01/25 05:04:05;;;;;;;6.15;1.55;;;6.30;78.90;;;;;;5016464;28;20030;-68
2024/01/25 05:06:31;;;;;;;6.75;1.58;;;6.20;78.90;;;;;;5033671;28;20026;-68
2024/01/25 05:08:56;;;;;;;5.72;1.00;;;6.20;78.90;;;;;;5036033;28;20038;-68
2024/01/25 05:11:22;;;;;;;1.38;0.85;;;6.20;78.80;;;;;;5041253;28;20022;-68
2024/01/25 05:13:48;;;;;;;5.85;2.17;;;6.20;78.80;;;;;;5039307;28;20115;-68
2024/01/25 05:16:13;;;;;;;4.65;1.35;;;6.20;78.70;;;;;;5034399;28;20018;-68
2024/01/25 05:18:39;;;;;;;5.93;1.40;;;6.10;78.60;;;;;;5033642;28;20076;-68
2024/01/25 05:21:05;;;;;;;3.08;1.77;;;6.10;78.50;;;;;;5034129;28;20404;-68
2024/01/25 05:23:30;;;;;;;6.82;2.10;;;6.10;78.60;;;;;;5032926;28;20053;-68
2024/01/25 05:25:56;;;;;;;3.65;1.50;;;6.10;78.50;;;;;;5035999;28;20084;-68
2024/01/25 05:28:24;;;;;;;4.50;1.50;;;6.00;78.50;;;;;;5034581;28;20033;-68
2024/01/25 05:30:50;;;;;;;3.33;0.90;;;6.00;78.60;;;;;;5032887;28;20392;-67
2024/01/25 05:33:15;;;;;;;8.10;2.22;;;6.00;78.60;;;;;;5033416;28;20040;-68
2024/01/25 05:35:41;;;;;;;2.95;1.77;;;6.00;78.40;;;;;;5034070;28;20040;-72
2024/01/25 05:38:07;;;;;;;2.50;1.30;;;6.00;78.30;;;;;;5035328;28;20029;-73
2024/01/25 05:40:32;;;;;;;10.45;1.52;;;5.90;78.40;;;;;;5033228;28;20032;-68
2024/01/25 05:42:59;;;;;;;5.32;1.63;;;5.90;78.50;;;;;;5033941;28;20032;-68
2024/01/25 05:45:26;;;;;;;2.58;1.25;;;5.90;78.60;;;;;;5034058;28;20370;-68
2024/01/25 05:47:51;;;;;;;2.83;1.60;;;5.90;78.70;;;;;;5033692;28;20101;-68
2024/01/25 05:50:17;;;;;;;1.65;1.25;;;5.90;78.60;;;;;;5033938;28;20117;-68
2024/01/25 05:52:43;;;;;;;2.30;1.50;;;5.90;78.50;;;;;;5031232;28;20030;-67
2024/01/25 05:55:09;;;;;;;3.83;1.23;;;5.80;78.40;;;;;;5032850;28;20484;-73
2024/01/25 05:57:36;;;;;;;7.28;2.17;;;5.80;78.60;;;;;;5037453;28;20094;-73
2024/01/25 06:00:05;;;;;;;2.20;1.25;;;5.80;78.70;;;;;;5035208;28;20037;-73
2024/01/25 06:02:31;;;;;;;3.30;1.17;;;5.70;78.80;;;;;;5028746;28;20449;-73
2024/01/25 06:04:58;;;;;;;3.22;1.90;;;5.70;78.60;;;;;;5070200;28;20033;-73
2024/01/25 06:07:25;;;;;;;6.97;1.23;;;5.70;78.50;;;;;;5037311;28;20023;-73
2024/01/25 06:09:50;;;;;;;1.50;1.10;;;5.70;78.70;;;;;;5032620;28;20029;-73
2024/01/25 06:12:16;;;;;;;3.40;1.25;;;5.60;78.60;;;;;;5032419;28;20029;-73
2024/01/25 06:14:42;;;;;;;5.35;1.38;;;5.70;78.70;;;;;;5040525;28;20416;-73
2024/01/25 06:17:08;;;;;;;4.07;1.55;;;5.60;79.40;;;;;;5036390;28;20037;-73
2024/01/25 06:19:34;;;;;;;7.40;1.85;;;5.60;78.80;;;;;;5040623;28;20082;-73
2024/01/25 06:22:00;;;;;;;3.22;1.63;;;5.60;78.80;;;;;;5027787;28;20031;-72
2024/01/25 06:24:26;;;;;;;1.80;1.20;;;5.60;78.90;;;;;;5039897;28;20040;-72
2024/01/25 06:26:53;;;;;;;2.17;1.25;;;5.60;78.90;;;;;;5039455;28;20017;-72
2024/01/25 06:29:19;;;;;;;5.72;1.38;;;5.60;78.80;;;;;;5038464;28;20380;-72
2024/01/25 06:31:45;;;;;;;3.40;1.60;;;5.60;78.70;;;;;;5035035;28;20017;-68
2024/01/25 06:34:11;;;;;;;5.20;2.03;;;5.50;78.70;;;;;;5034364;28;20030;-68
2024/01/25 06:36:37;;;;;;;5.40;2.08;;;5.50;78.80;;;;;;5039837;28;20488;-68
2024/01/25 06:39:06;;;;;;;5.22;1.25;;;5.50;78.90;;;;;;5041388;28;20028;-68
2024/01/25 06:41:32;;;;;;;9.57;2.00;;;5.50;78.90;;;;;;5043519;28;20044;-67
2024/01/25 06:43:58;;;;;;;7.95;2.13;;;5.50;79.00;;;;;;5034018;28;20022;-68
2024/01/25 06:46:24;;;;;;;7.05;2.10;;;5.50;79.00;;;;;;5033148;28;20030;-68
2024/01/25 06:48:51;;;;;;;1.42;1.17;;;5.50;79.00;;;;;;5032904;28;20175;-68
2024/01/25 06:51:16;;;;;;;2.38;1.38;;;5.50;79.00;;;;;;5036284;28;20477;-68
2024/01/25 06:53:42;;;;;;;16.20;2.28;;;5.60;79.00;;;;;;5041464;28;20041;-73
2024/01/25 06:56:08;;;;;;;4.05;1.52;;;5.60;79.20;;;;;;5031955;28;20131;-72
2024/01/25 06:58:33;;;;;;;2.60;1.52;;;5.70;79.30;;;;;;5041373;28;20025;-68
2024/01/25 07:00:59;;;;;;;8.60;2.55;;;5.70;79.20;;;;;;5032859;28;20099;-68
2024/01/25 07:03:25;;;;;;;3.10;1.63;;;5.70;79.30;;;;;;5032534;28;20038;-68
2024/01/25 07:05:50;;;;;;;2.25;1.73;;;5.70;79.40;;;;;;5039469;28;20045;-73
2024/01/25 07:08:16;;;;;;;9.40;1.85;;;5.60;79.30;;;;;;5028584;28;20032;-73
2024/01/25 07:10:42;;;;;;;6.65;2.72;;;5.60;79.30;;;;;;5027806;28;20047;-73
2024/01/25 07:13:08;;;;;;;3.13;1.45;;;5.60;79.40;;;;;;5032784;28;20393;-73
2024/01/25 07:15:34;;;;;;;5.20;2.17;;;5.60;79.50;;;;;;5033408;28;20037;-68
2024/01/25 07:17:59;;;;;;;3.13;1.33;;;5.60;79.50;;;;;;5042140;28;20476;-68
2024/01/25 07:20:25;;;;;;;2.97;1.70;;;5.60;79.60;;;;;;5032230;28;20030;-68
2024/01/25 07:22:51;;;;;;;8.55;1.33;;;5.70;79.60;;;;;;5031972;28;20049;-67
2024/01/25 07:25:16;;;;;;;2.22;1.60;;;5.70;79.60;;;;;;5044003;28;20370;-68
2024/01/25 07:27:46;;;;;;;6.18;2.58;;;5.70;79.60;;;;;;5064106;28;20057;-68
2024/01/25 07:30:12;;;;;;;9.70;2.45;;;5.70;79.60;;;;;;5030833;28;20028;-68
2024/01/25 07:32:41;;;;;;;9.10;2.95;;;5.70;79.70;;;;;;5031881;28;20029;-68
2024/01/25 07:35:07;;;;;;;4.70;1.65;;;5.70;79.70;;;;;;5030628;28;20029;-68
2024/01/25 07:37:33;;;;;;;2.95;1.67;;;5.70;79.60;;;;;;5039283;28;20056;-68
2024/01/25 07:39:59;;;;;;;3.22;1.27;;;5.70;79.50;;;;;;5030890;28;20061;-68
2024/01/25 07:42:24;;;;;;;2.40;1.33;;;5.70;79.40;;;;;;5031737;28;20034;-68
2024/01/25 07:44:50;;;;;;;3.20;1.38;;;5.70;79.30;;;;;;5030507;28;20060;-68
2024/01/25 07:47:16;;;;;;;9.07;2.22;;;5.70;79.40;;;;;;5030034;28;20481;-68
2024/01/25 07:49:41;;;;;;;2.95;1.05;;;5.70;79.40;;;;;;5033777;28;20029;-68
2024/01/25 07:52:07;;;;;;;5.75;1.48;;;5.70;79.40;;;;;;5032998;28;20025;-68
2024/01/25 07:54:33;;;;;;;4.30;1.67;;;5.80;79.40;;;;;;5034158;28;20033;-73
2024/01/25 07:56:58;;;;;;;8.75;2.22;;;5.70;79.40;;;;;;5031164;28;20040;-73
2024/01/25 07:59:24;;;;;;;3.80;2.15;;;5.70;79.30;;;;;;5031706;28;20404;-73
2024/01/25 08:01:50;;;;;;;4.32;2.42;;;5.80;79.40;;;;;;5032855;28;20021;-73
2024/01/25 08:04:16;;;;;;;8.75;2.22;;;5.80;79.50;;;;;;4994321;28;20030;-73
2024/01/25 08:06:41;;;;;;;6.78;1.85;;;5.80;79.50;;;;;;5034064;28;20029;-68
2024/01/25 08:09:08;;;;;;;5.03;1.98;;;5.80;79.60;;;;;;5031132;28;20036;-69
2024/01/25 08:11:35;;;;;;;2.53;1.85;;;5.90;79.70;;;;;;5019193;28;20120;-68
2024/01/25 08:14:00;;;;;;;4.60;1.35;;;5.90;79.60;;;;;;5030180;28;20033;-68
2024/01/25 08:16:26;;;;;;;2.03;1.50;;;5.90;79.60;;;;;;5036077;28;20033;-68
2024/01/25 08:18:52;;;;;;;3.50;1.45;;;5.90;79.60;;;;;;5040558;28;20914;-69
2024/01/25 08:21:17;;;;;;;4.35;1.95;;;6.00;79.70;;;;;;5033503;28;20033;-69
2024/01/25 08:23:43;;;;;;;3.42;2.15;;;6.00;79.70;;;;;;5024577;28;20092;-73
2024/01/25 08:26:09;;;;;;;5.50;1.88;;;6.00;79.70;;;;;;5023483;28;20044;-73
2024/01/25 08:28:40;;;;;;;6.15;1.50;;;6.10;79.80;;;;;;5034171;28;20579;-73
2024/01/25 08:31:06;;;;;;;4.00;2.33;;;6.10;79.70;;;;;;5025422;28;20064;-73
2024/01/25 08:33:31;;;;;;;8.15;2.45;;;6.10;79.80;;;;;;5025423;28;20184;-73
2024/01/25 08:35:57;;;;;;;4.97;2.13;;;6.20;79.80;;;;;;5025799;28;20429;-68
2024/01/25 08:38:23;;;;;;;11.20;2.10;;;6.20;79.70;;;;;;5038602;28;20035;-68
2024/01/25 08:40:48;;;;;;;7.07;2.03;;;6.30;79.80;;;;;;5039837;28;20028;-69
2024/01/25 08:43:14;;;;;;;7.50;2.20;;;6.30;79.90;;;;;;5040004;28;20353;-69
2024/01/25 08:45:40;;;;;;;7.93;2.53;;;6.40;79.80;;;;;;5042293;28;20028;-69
2024/01/25 08:48:06;;;;;;;12.77;3.03;;;6.50;79.80;;;;;;5024257;28;20014;-72
2024/01/25 08:50:33;;;;;;;5.18;1.55;;;6.50;79.90;;;;;;5035086;28;20473;-72
2024/01/25 08:52:59;;;;;;;6.57;2.25;;;6.60;80.00;;;;;;5027926;28;20041;-68
2024/01/25 08:55:25;;;;;;;4.43;1.55;;;6.60;80.00;;;;;;5042247;28;20396;-70
2024/01/25 08:57:50;;;;;;;4.13;1.95;;;6.70;80.00;;;;;;5039201;28;20038;-71
2024/01/25 09:00:16;;;;;;;4.88;2.08;;;6.80;80.00;;;;;;5020229;28;20057;-70
2024/01/25 09:02:43;;;;;;;5.50;2.20;;;6.90;80.00;;;;;;5024184;28;20044;-70
2024/01/25 09:05:09;;;;;;;4.63;1.73;;;6.90;80.00;;;;;;5017754;28;20517;-70
2024/01/25 09:07:35;;;;;;;6.10;1.63;;;7.00;80.00;;;;;;5031511;28;20036;-71
2024/01/25 09:10:01;;;;;;;12.20;2.83;;;7.10;80.00;;;;;;5028481;28;20094;-73
2024/01/25 09:12:26;;;;;;;4.32;2.03;;;7.20;80.10;;;;;;5025581;28;20033;-70
2024/01/25 09:14:52;;;;;;;3.60;2.50;;;7.30;80.10;;;;;;5035640;28;20112;-70
2024/01/25 09:17:21;;;;;;;15.45;2.97;;;7.30;80.10;;;;;;5035482;28;20028;-70
2024/01/25 09:19:50;;;;;;;7.68;2.35;;;7.40;80.20;;;;;;5038863;28;20120;-71
2024/01/25 09:22:19;;;;;;;3.72;1.77;;;7.50;80.30;;;;;;5038995;28;20116;-69
2024/01/25 09:24:45;;;;;;;3.13;1.65;;;7.60;80.30;;;;;;5033565;28;20071;-69
2024/01/25 09:27:12;;;;;;;6.60;2.75;;;7.60;80.20;;;;;;5031319;28;20080;-71
2024/01/25 09:29:38;;;;;;;7.80;2.83;;;7.70;80.20;;;;;;5033838;28;20028;-69
2024/01/25 09:32:08;;;;;;;2.28;1.75;;;7.80;80.10;;;;;;5035154;28;20024;-70
2024/01/25 09:34:35;;;;;;;6.50;2.10;;;7.90;80.20;;;;;;5031832;28;20156;-71
2024/01/25 09:37:00;;;;;;;2.83;1.85;;;7.90;80.10;;;;;;5030766;28;20124;-72
2024/01/25 09:39:26;;;;;;;3.40;1.88;;;8.00;80.20;;;;;;5058846;28;20179;-72
2024/01/25 09:41:52;;;;;;;8.23;2.38;;;8.00;80.20;;;;;;5025382;28;20537;-68
2024/01/25 09:44:18;;;;;;;10.18;2.45;;;8.10;80.30;;;;;;5011522;28;20120;-72
2024/01/25 09:46:48;;;;;;;4.60;2.13;;;8.10;80.30;;;;;;5032698;28;20127;-71
2024/01/25 09:49:14;;;;;;;5.30;2.13;;;8.20;80.40;;;;;;5038796;28;20021;-70
2024/01/25 09:51:41;;;;;;;6.28;2.72;;;8.20;80.50;;;;;;5040507;28;20026;-70
2024/01/25 09:54:07;;;;;;;6.85;3.03;;;8.20;80.60;;;;;;5036086;28;20033;-70
2024/01/25 09:56:33;;;;;;;9.80;3.10;;;8.20;80.80;;;;;;5035209;28;20033;-71
2024/01/25 09:59:00;;;;;;;11.57;2.70;;;8.10;81.20;;;;;;5033053;28;20041;-72
2024/01/25 10:01:26;;;;;;;9.85;2.75;;;8.10;81.70;;;;;;5024818;28;20026;-72
2024/01/25 10:03:53;;;;;;;9.20;2.58;;;8.00;82.10;;;;;;5028427;28;20075;-72
2024/01/25 10:06:19;;;;;;;11.35;4.07;;;7.90;82.10;;;;;;5027788;28;20416;-73
2024/01/25 10:08:45;;;;;;;7.53;2.45;;;8.00;82.50;;;;;;5023567;28;20025;-73
2024/01/25 10:11:11;;;;;;;11.80;2.90;;;8.00;82.80;;;;;;5027305;28;20030;-73
2024/01/25 10:13:45;;;;;;;8.88;2.70;;;8.00;82.80;;;;;;5029002;28;20052;-72
2024/01/25 10:16:15;;;;;;;6.72;3.63;;;8.10;82.60;;;;;;5031712;28;20040;-70
2024/01/25 10:18:44;;;;;;;9.30;2.88;;;8.20;82.50;;;;;;5032692;28;20033;-72
2024/01/25 10:21:11;;;;;;;43.70;4.65;;;8.20;82.60;;;;;;5027763;28;20568;-72
2024/01/25 10:23:37;;;;;;;13.77;3.05;;;8.30;82.40;;;;;;5015939;28;20048;-72
2024/01/25 10:26:03;;;;;;;15.20;2.75;;;8.30;82.50;;;;;;5028751;28;20114;-72
2024/01/25 10:28:30;;;;;;;7.93;2.17;;;8.40;82.50;;;;;;5036569;28;20838;-72
2024/01/25 10:31:02;;;;;;;9.00;2.30;;;8.40;82.40;;;;;;5031575;28;20022;-72
2024/01/25 10:33:28;;;;;;;14.43;2.97;;;8.50;82.30;;;;;;5019880;28;20033;-72
2024/01/25 10:35:55;;;;;;;10.52;2.58;;;8.60;82.20;;;;;;5029614;28;20321;-72
2024/01/25 10:38:21;;;;;;;8.38;3.40;;;8.80;82.10;;;;;;5029230;28;20037;-72
2024/01/25 10:40:47;;;;;;;8.40;3.03;;;8.90;82.10;;;;;;5030161;28;20034;-72
2024/01/25 10:43:14;;;;;;;21.08;3.50;;;9.10;81.90;;;;;;5026361;28;20057;-73
2024/01/25 10:45:39;;;;;;;11.13;3.38;;;9.20;81.80;;;;;;5024834;28;20111;-72
2024/01/25 10:48:07;;;;;;;16.30;4.22;;;9.30;81.60;;;;;;5031588;28;20057;-71
2024/01/25 10:50:33;;;;;;;12.35;4.60;;;9.50;81.70;;;;;;5033986;28;20026;-70
2024/01/25 10:53:00;;;;;;;4.72;2.95;;;9.70;81.30;;;;;;5035094;28;21044;-72
2024/01/25 10:55:26;;;;;;;9.05;3.42;;;9.90;80.90;;;;;;5040958;28;20032;-70
2024/01/25 10:57:52;;;;;;;8.77;3.38;;;10.00;80.40;;;;;;5040536;28;20385;-70
2024/01/25 11:00:18;;;;;;;9.68;3.78;;;10.00;80.10;;;;;;5040722;28;20284;-70
2024/01/25 11:02:45;;;;;;;15.38;3.00;;;10.00;80.00;;;;;;5039252;28;20025;-70
2024/01/25 11:05:19;;;;;;;11.15;2.72;;;10.00;80.00;;;;;;5040288;28;20476;-70
2024/01/25 11:07:49;;;;;;;24.88;5.55;;;10.10;79.60;;;;;;5042785;28;20096;-70
2024/01/25 11:10:20;;;;;;;9.80;3.05;;;10.00;79.70;;;;;;5031914;28;20025;-70
2024/01/25 11:12:57;;;;;;;9.60;4.00;;;9.90;80.00;;;;;;5039137;28;20376;-70
2024/01/25 11:15:24;;;;;;;4.65;2.40;;;9.90;80.50;;;;;;5037187;28;20057;-70
2024/01/25 11:17:53;;;;;;;12.02;3.67;;;10.30;80.30;;;;;;5038464;28;20037;-70
2024/01/25 11:20:24;;;;;;;10.63;3.45;;;11.00;79.10;;;;;;5019904;28;20037;-73
2024/01/25 11:23:05;;;;;;;12.00;2.85;;;11.50;77.30;;;;;;5028722;28;20053;-73
2024/01/25 11:25:33;;;;;;;10.93;2.95;;;11.80;76.70;;;;;;5035274;28;20100;-70
2024/01/25 11:28:00;;;;;;;8.32;3.95;;;12.20;75.60;;;;;;5030365;28;20033;-73
2024/01/25 11:30:27;;;;;;;14.05;3.13;;;12.10;74.70;;;;;;5030637;28;20037;-71
2024/01/25 11:32:53;;;;;;;9.20;2.72;;;11.80;75.30;;;;;;5031375;28;20021;-70
2024/01/25 11:35:19;;;;;;;17.52;3.70;;;11.40;76.30;;;;;;5035858;28;20044;-70
2024/01/25 11:37:51;;;;;;;6.97;2.22;;;11.20;77.00;;;;;;5030243;28;20041;-73
2024/01/25 11:40:16;;;;;;;10.27;2.00;;;11.20;77.40;;;;;;5028469;28;20428;-72
2024/01/25 11:42:44;;;;;;;5.10;2.72;;;11.00;77.60;;;;;;5028723;28;20037;-72
2024/01/25 11:45:14;;;;;;;5.53;1.95;;;11.00;77.70;;;;;;5028851;28;20031;-72
2024/01/25 11:47:40;;;;;;;7.80;2.95;;;10.90;77.90;;;;;;5028225;28;20037;-72
2024/01/25 11:50:08;;;;;;;4.65;2.22;;;11.00;78.20;;;;;;5028635;28;20512;-72
2024/01/25 11:52:34;;;;;;;9.43;3.35;;;11.60;78.00;;;;;;5030800;28;20465;-72
2024/01/25 11:55:08;;;;;;;7.60;2.88;;;12.50;76.10;;;;;;5038175;28;20519;-73
2024/01/25 11:57:38;;;;;;;12.15;3.47;;;13.10;73.80;;;;;;5035889;28;20094;-72
2024/01/25 12:00:06;;;;;;;10.32;2.25;;;13.00;73.10;;;;;;5042012;28;20018;-70
2024/01/25 12:02:32;;;;;;;10.30;2.20;;;12.70;73.50;;;;;;5036442;28;20255;-70
2024/01/25 12:04:58;;;;;;;9.65;3.08;;;12.40;74.40;;;;;;5032394;28;20032;-70
2024/01/25 12:07:24;;;;;;;7.43;3.58;;;12.10;75.50;;;;;;5031380;28;20018;-70
2024/01/25 12:10:07;;;;;;;9.18;3.22;;;11.80;75.50;;;;;;5031673;28;20032;-70
2024/01/25 12:12:35;;;;;;;8.40;2.92;;;11.50;75.70;;;;;;5029421;28;20037;-70
2024/01/25 12:15:03;;;;;;;12.73;2.88;;;11.30;76.40;;;;;;5030104;28;20092;-70
2024/01/25 12:17:29;;;;;;;6.47;2.63;;;11.30;76.80;;;;;;5031298;28;20242;-70
2024/01/25 12:19:56;;;;;;;8.73;3.38;;;11.10;76.90;;;;;;5030239;28;20021;-70
2024/01/25 12:22:23;;;;;;;9.55;2.85;;;11.00;77.00;;;;;;5031799;28;20369;-70
2024/01/25 12:24:49;;;;;;;9.88;3.03;;;10.90;77.30;;;;;;5031458;28;20028;-70
2024/01/25 12:27:17;;;;;;;5.57;3.22;;;10.80;77.50;;;;;;5032686;28;20059;-70
2024/01/25 12:29:43;;;;;;;9.02;3.53;;;10.90;77.80;;;;;;5035744;28;20489;-70
2024/01/25 12:32:09;;;;;;;8.27;3.80;;;11.00;77.50;;;;;;5013492;28;20040;-70
2024/01/25 12:34:37;;;;;;;9.13;3.75;;;11.10;77.50;;;;;;5031343;28;20030;-70
2024/01/25 12:37:03;;;;;;;9.70;2.58;;;11.80;77.00;;;;;;5030769;28;20032;-70
2024/01/25 12:39:29;;;;;;;14.38;2.70;;;12.60;75.10;;;;;;5046646;28;20128;-70
2024/01/25 12:41:54;;;;;;;10.05;3.15;;;13.70;73.60;;;;;;5031380;28;20125;-71
2024/01/25 12:44:20;;;;;;;14.43;4.18;;;14.40;70.50;;;;;;5031382;28;20030;-71
2024/01/25 12:46:46;;;;;;;12.57;3.35;;;14.30;68.90;;;;;;5034502;28;20453;-71
2024/01/25 12:49:11;;;;;;;15.27;2.80;;;13.70;69.80;;;;;;5031034;28;20033;-71